createdAt,value
2023-10-20T00:01:30.840Z,64582.16
2023-10-20T00:04:33.067Z,97767.56
2023-10-20T00:07:35.208Z,97767.56
2023-10-20T00:10:38.021Z,97784.75
2023-10-20T00:13:50.408Z,97772.84
2023-10-20T00:16:52.510Z,97782.84
2023-10-20T00:19:54.578Z,97780.97
2023-10-20T00:22:56.906Z,97772.19
2023-10-20T00:25:59.967Z,97777.50
2023-10-20T00:29:01.944Z,97779.81
2023-10-20T00:32:05.831Z,97777.00
2023-10-20T00:35:14.680Z,97778.47
2023-10-20T00:38:17.079Z,97775.50
2023-10-20T00:41:19.131Z,97771.03
2023-10-20T00:44:21.415Z,97764.84
2023-10-20T00:47:23.593Z,97754.41
2023-10-20T00:50:25.843Z,97749.25
2023-10-20T00:53:29.495Z,97746.56
2023-10-20T00:56:31.911Z,97736.00
2023-10-20T00:59:33.796Z,97732.06
2023-10-20T01:02:39.370Z,97737.22
2023-10-20T01:05:41.472Z,97731.81
2023-10-20T01:08:43.513Z,97740.22
2023-10-20T01:11:46.344Z,97739.97
2023-10-20T01:14:48.368Z,97739.66
2023-10-20T01:17:51.104Z,97742.25
2023-10-20T01:20:53.184Z,97751.06
2023-10-20T01:23:55.752Z,97743.06
2023-10-20T01:26:57.672Z,97729.25
2023-10-20T01:29:59.630Z,97714.22
2023-10-20T01:33:01.616Z,97710.16
2023-10-20T01:36:03.748Z,97705.69
2023-10-20T01:39:06.240Z,97702.97
2023-10-20T01:42:08.615Z,97704.19
2023-10-20T01:45:11.219Z,97695.50
2023-10-20T01:52:20.860Z,97706.06
2023-10-20T01:55:22.946Z,97705.28
2023-10-20T01:58:24.906Z,97712.88
2023-10-20T02:01:28.215Z,97710.28
2023-10-20T02:04:30.301Z,97698.34
2023-10-20T02:07:32.181Z,97687.78
2023-10-20T02:10:34.194Z,97693.88
2023-10-20T02:13:36.927Z,97695.66
2023-10-20T02:20:26.390Z,97683.03
2023-10-20T02:23:30.982Z,97678.44
2023-10-20T02:26:33.004Z,97685.91
2023-10-20T02:29:34.943Z,97677.09
2023-10-20T02:33:19.064Z,64582.16
2023-10-20T02:37:20.019Z,64582.16
2023-10-20T02:40:40.544Z,64582.16
2023-10-20T02:44:00.146Z,64582.16
2023-10-20T02:47:04.632Z,64582.16
2023-10-20T02:51:09.031Z,64582.16
2023-10-20T02:54:57.490Z,64582.16
2023-10-20T02:58:57.940Z,64582.16
2023-10-20T03:03:00.236Z,64582.16
2023-10-20T03:07:02.135Z,64582.16
2023-10-20T03:10:04.361Z,97685.22
2023-10-20T03:13:06.490Z,97694.44
2023-10-20T03:16:08.496Z,97690.75
2023-10-20T03:19:12.964Z,97683.03
2023-10-20T03:22:14.948Z,97683.97
2023-10-20T03:25:19.162Z,97683.31
2023-10-20T03:28:21.129Z,97670.28
2023-10-20T03:31:23.414Z,97653.34
2023-10-20T03:34:25.389Z,97656.19
2023-10-20T03:37:28.598Z,97655.91
2023-10-20T03:40:41.601Z,97663.06
2023-10-20T03:43:43.429Z,97659.16
2023-10-20T03:46:57.730Z,97655.34
2023-10-20T03:50:01.996Z,97656.16
2023-10-20T03:53:04.308Z,97656.16
2023-10-20T03:56:08.106Z,97664.56
2023-10-20T03:59:14.946Z,97650.06
2023-10-20T04:02:17.026Z,97649.09
2023-10-20T04:05:20.928Z,97645.28
2023-10-20T04:08:24.452Z,97645.69
2023-10-20T04:11:26.474Z,97624.78
2023-10-20T04:14:28.312Z,97635.34
2023-10-20T04:17:30.326Z,97620.69
2023-10-20T04:20:38.919Z,97626.25
2023-10-20T04:23:41.562Z,97619.03
2023-10-20T04:26:43.808Z,97617.78
2023-10-20T04:30:05.720Z,97614.22
2023-10-20T04:33:26.114Z,97614.22
2023-10-20T04:36:46.879Z,97611.13
2023-10-20T04:40:07.270Z,97613.28
2023-10-20T04:43:15.595Z,97617.63
2023-10-20T04:46:32.416Z,97618.44
2023-10-20T04:49:52.902Z,97621.84
2023-10-20T04:53:12.345Z,97628.09
2023-10-20T04:56:16.928Z,97620.78
2023-10-20T04:59:24.247Z,97624.56
2023-10-20T05:02:40.800Z,97620.50
2023-10-20T05:05:54.852Z,97607.88
2023-10-20T05:08:57.518Z,97604.06
2023-10-20T05:11:59.429Z,97605.56
2023-10-20T05:15:01.392Z,97606.22
2023-10-20T05:18:03.927Z,97612.88
2023-10-20T05:21:09.676Z,97615.81
2023-10-20T05:24:12.012Z,97632.94
2023-10-20T05:27:13.986Z,97630.88
2023-10-20T05:30:15.965Z,97633.59
2023-10-20T05:33:17.958Z,97629.69
2023-10-20T05:36:19.949Z,97628.72
2023-10-20T05:39:22.835Z,97620.47
2023-10-20T05:42:25.223Z,97632.69
2023-10-20T05:45:30.219Z,97635.94
2023-10-20T05:48:32.491Z,97644.84
2023-10-20T05:51:34.455Z,97640.00
2023-10-20T05:54:36.557Z,97638.94
2023-10-20T05:57:38.455Z,97634.31
2023-10-20T06:00:59.519Z,97646.66
2023-10-20T06:04:02.886Z,97640.91
2023-10-20T06:07:05.554Z,97625.34
2023-10-20T06:10:10.459Z,97630.81
2023-10-20T06:13:14.787Z,97634.88
2023-10-20T06:16:16.682Z,97636.88
2023-10-20T06:19:18.638Z,97639.16
2023-10-20T06:22:20.679Z,97642.19
2023-10-20T06:25:22.962Z,97653.31
2023-10-20T06:28:24.847Z,97656.22
2023-10-20T06:31:36.103Z,97653.03
2023-10-20T06:34:42.284Z,97648.91
2023-10-20T06:37:56.288Z,97644.78
2023-10-20T06:40:58.575Z,97644.63
2023-10-20T06:44:00.479Z,97643.38
2023-10-20T06:47:02.750Z,97647.88
2023-10-20T06:50:04.880Z,97660.00
2023-10-20T06:53:07.223Z,97660.13
2023-10-20T06:56:16.395Z,97653.78
2023-10-20T06:59:21.648Z,97640.72
2023-10-20T07:02:23.799Z,97638.72
2023-10-20T07:05:25.980Z,97631.69
2023-10-20T07:08:28.623Z,97624.81
2023-10-20T07:11:30.697Z,97618.38
2023-10-20T07:14:32.950Z,97614.56
2023-10-20T07:17:35.892Z,97624.88
2023-10-20T07:20:40.201Z,97621.41
2023-10-20T07:23:43.166Z,97612.72
2023-10-20T07:26:45.388Z,97615.84
2023-10-20T07:29:47.458Z,97615.19
2023-10-20T07:32:51.397Z,97620.72
2023-10-20T07:35:53.661Z,97632.03
2023-10-20T07:38:56.064Z,97624.97
2023-10-20T07:41:58.692Z,97615.72
2023-10-20T07:45:01.449Z,97606.00
2023-10-20T07:48:06.392Z,97607.16
2023-10-20T07:51:08.500Z,97610.84
2023-10-20T07:54:15.955Z,97609.91
2023-10-20T07:57:25.908Z,97613.91
2023-10-20T08:00:30.828Z,97616.38
2023-10-20T08:03:33.195Z,97613.59
2023-10-20T08:06:36.545Z,97610.97
2023-10-20T08:09:38.994Z,97618.91
2023-10-20T08:12:40.907Z,97623.47
2023-10-20T08:15:43.499Z,97622.81
2023-10-20T08:18:46.266Z,97614.69
2023-10-20T08:21:48.838Z,97611.59
2023-10-20T08:24:50.710Z,97617.56
2023-10-20T08:27:52.914Z,97636.56
2023-10-20T08:31:18.872Z,97651.03
2023-10-20T08:34:21.914Z,97667.56
2023-10-20T08:37:24.003Z,97664.31
2023-10-20T08:40:26.459Z,97668.88
2023-10-20T08:43:28.956Z,97682.94
2023-10-20T08:46:31.061Z,97691.03
2023-10-20T08:49:33.721Z,97682.09
2023-10-20T08:52:37.647Z,97677.06
2023-10-20T08:55:43.175Z,97676.56
2023-10-20T08:58:48.307Z,97671.19
2023-10-20T09:01:52.833Z,97653.38
2023-10-20T09:04:54.838Z,97643.94
2023-10-20T09:08:00.783Z,97631.16
2023-10-20T09:11:03.263Z,97629.69
2023-10-20T09:14:07.708Z,97629.69
2023-10-20T09:17:21.536Z,97639.06
2023-10-20T09:20:24.941Z,97639.69
2023-10-20T09:23:27.025Z,97642.09
2023-10-20T09:26:30.454Z,97643.47
2023-10-20T09:29:33.209Z,97633.84
2023-10-20T09:32:39.219Z,97642.72
2023-10-20T09:35:42.886Z,97633.41
2023-10-20T09:38:46.138Z,97634.69
2023-10-20T09:41:50.852Z,97635.25
2023-10-20T09:45:26.974Z,97631.47
2023-10-20T09:48:28.923Z,97625.69
2023-10-20T09:51:33.040Z,97625.25
2023-10-20T09:54:36.006Z,97621.44
2023-10-20T09:57:38.128Z,97623.13
2023-10-20T10:00:43.621Z,97624.13
2023-10-20T10:04:04.683Z,97610.25
2023-10-20T10:07:10.799Z,97600.41
2023-10-20T10:10:21.276Z,97595.78
2023-10-20T10:13:33.833Z,97588.13
2023-10-20T10:16:50.929Z,97586.75
2023-10-20T10:19:54.816Z,97587.66
2023-10-20T10:23:10.486Z,97582.50
2023-10-20T10:26:16.145Z,97567.66
2023-10-20T10:29:20.103Z,97571.16
2023-10-20T10:32:24.064Z,97566.75
2023-10-20T10:35:27.208Z,97554.84
2023-10-20T10:38:32.324Z,97546.13
2023-10-20T10:41:35.611Z,97548.94
2023-10-20T10:57:52.356Z,97522.09
2023-10-20T11:19:45.824Z,97510.72
2023-10-20T11:39:54.785Z,97493.72
2023-10-20T11:42:57.242Z,97492.28
2023-10-20T11:45:59.307Z,97490.09
2023-10-20T11:49:01.284Z,97496.94
2023-10-20T11:52:07.122Z,97490.34
2023-10-20T11:55:11.606Z,97495.38
2023-10-20T11:58:13.835Z,97479.28
2023-10-20T12:01:15.911Z,97494.00
2023-10-20T12:04:18.014Z,97489.31
2023-10-20T12:07:20.176Z,97481.69
2023-10-20T12:10:25.072Z,97472.81
2023-10-20T12:13:27.153Z,97456.13
2023-10-20T12:16:29.213Z,97450.88
2023-10-20T12:19:31.197Z,97441.25
2023-10-20T12:22:33.145Z,97446.47
2023-10-20T12:25:35.152Z,97453.53
2023-10-20T12:28:37.002Z,97452.75
2023-10-20T12:31:38.970Z,97427.69
2023-10-20T12:34:41.146Z,97418.66
2023-10-20T12:37:43.132Z,97414.44
2023-10-20T12:40:45.014Z,97401.75
2023-10-20T12:43:48.512Z,97403.59
2023-10-20T12:46:51.812Z,97404.56
2023-10-20T12:49:57.024Z,97396.94
2023-10-20T12:52:59.285Z,97397.34
2023-10-20T12:56:01.250Z,97399.53
2023-10-20T12:59:03.365Z,97404.88
2023-10-20T13:02:05.544Z,97399.78
2023-10-20T13:05:08.437Z,97399.78
2023-10-20T13:08:10.270Z,97403.78
2023-10-20T13:11:12.892Z,97382.88
2023-10-20T13:14:14.801Z,97378.25
2023-10-20T13:17:16.841Z,97367.78
2023-10-20T13:20:18.913Z,97385.91
2023-10-20T13:23:20.897Z,97382.31
2023-10-20T13:26:22.876Z,97392.19
2023-10-20T13:29:24.855Z,97384.16
2023-10-20T13:32:26.901Z,97381.53
2023-10-20T13:35:28.877Z,97382.75
2023-10-20T13:38:33.056Z,97382.75
2023-10-20T13:41:35.176Z,97368.19
2023-10-20T13:44:37.624Z,97368.59
2023-10-20T13:47:39.723Z,97367.59
2023-10-20T13:50:41.807Z,97360.34
2023-10-20T13:53:43.866Z,97464.41
2023-10-20T13:56:45.914Z,97359.53
2023-10-20T13:59:48.072Z,97360.97
2023-10-20T14:02:50.140Z,97362.97
2023-10-20T14:05:56.029Z,97362.97
2023-10-20T14:08:58.371Z,97352.19
2023-10-20T14:12:00.364Z,97351.16
2023-10-20T14:15:03.550Z,97353.78
2023-10-20T14:18:05.845Z,97353.78
2023-10-20T14:21:09.448Z,97350.16
2023-10-20T14:24:11.341Z,97344.56
2023-10-20T14:27:14.302Z,97335.53
2023-10-20T14:30:16.190Z,97335.31
2023-10-20T14:33:18.103Z,97335.31
2023-10-20T14:36:20.669Z,97342.56
2023-10-20T14:56:17.527Z,64582.16
2023-10-20T14:59:19.479Z,64582.16
2023-10-20T15:02:21.346Z,64582.16
2023-10-20T15:05:24.219Z,64582.16
2023-10-20T15:08:26.369Z,64582.16
2023-10-20T15:11:30.687Z,64582.16
2023-10-20T15:14:33.093Z,97338.09
2023-10-20T15:17:35.141Z,97338.09
2023-10-20T15:20:41.362Z,97352.56
2023-10-20T15:23:43.291Z,97360.75
2023-10-20T15:26:47.060Z,97356.53
2023-10-20T15:29:49.225Z,97365.75
2023-10-20T15:32:51.212Z,97376.41
2023-10-20T15:35:53.174Z,97379.63
2023-10-20T15:38:56.058Z,97389.72
2023-10-20T15:41:58.115Z,97391.91
2023-10-20T15:45:00.566Z,97396.78
2023-10-20T15:48:04.446Z,97399.38
2023-10-20T15:51:06.662Z,97402.00
2023-10-20T15:54:09.010Z,97403.06
2023-10-20T15:57:11.324Z,97403.06
2023-10-20T16:00:14.178Z,97404.91
2023-10-20T16:03:19.845Z,97404.53
2023-10-20T16:06:22.503Z,97399.06
2023-10-20T16:09:24.423Z,97401.31
2023-10-20T16:12:26.310Z,97403.94
2023-10-20T16:15:29.557Z,97407.75
2023-10-20T16:18:31.521Z,97413.19
2023-10-20T16:21:33.527Z,97403.31
2023-10-20T16:24:38.260Z,97417.41
2023-10-20T16:27:42.903Z,97428.50
2023-10-20T16:30:47.339Z,97429.50
2023-10-20T16:33:49.257Z,97431.75
2023-10-20T16:36:51.261Z,97433.91
2023-10-20T16:39:53.129Z,97431.72
2023-10-20T16:42:55.036Z,97442.78
2023-10-20T16:45:57.037Z,97440.56
2023-10-20T16:48:59.200Z,97435.94
2023-10-20T16:52:01.177Z,97456.88
2023-10-20T16:55:03.140Z,97447.59
2023-10-20T16:58:05.997Z,97456.41
2023-10-20T17:01:08.275Z,97449.13
2023-10-20T17:04:10.610Z,97448.91
2023-10-20T17:07:12.687Z,97444.88
2023-10-20T17:10:14.704Z,97446.47
2023-10-20T17:13:16.777Z,97446.88
2023-10-20T17:16:19.063Z,97436.19
2023-10-20T17:19:20.961Z,97438.88
2023-10-20T17:22:22.890Z,97434.63
2023-10-20T17:25:24.749Z,97420.72
2023-10-20T17:28:26.936Z,97419.34
2023-10-20T17:31:28.886Z,97414.91
2023-10-20T17:34:31.581Z,97411.88
2023-10-20T17:37:33.447Z,97417.72
2023-10-20T17:40:36.162Z,97420.13
2023-10-20T17:43:38.687Z,97430.38
2023-10-20T17:46:41.338Z,97430.97
2023-10-20T17:49:43.276Z,97421.66
2023-10-20T17:52:46.246Z,97430.78
2023-10-20T17:55:49.063Z,97438.38
2023-10-20T18:02:52.143Z,97435.59
2023-10-20T18:05:54.776Z,97442.47
2023-10-20T18:08:57.612Z,97445.72
2023-10-20T18:11:59.532Z,97449.59
2023-10-20T18:15:01.755Z,97432.84
2023-10-20T18:18:07.183Z,97432.88
2023-10-20T18:21:09.463Z,97440.09
2023-10-20T18:24:11.505Z,97437.91
2023-10-20T18:27:13.387Z,97443.56
2023-10-20T18:30:15.581Z,97442.19
2023-10-20T18:33:17.804Z,97444.22
2023-10-20T18:36:19.722Z,97447.63
2023-10-20T18:39:23.233Z,97450.84
2023-10-20T18:42:26.166Z,97450.66
2023-10-20T18:45:28.711Z,97448.81
2023-10-20T18:48:30.855Z,97454.03
2023-10-20T18:51:33.684Z,97466.13
2023-10-20T18:54:35.600Z,97450.81
2023-10-20T18:57:37.537Z,97459.50
2023-10-20T19:00:39.671Z,97460.91
2023-10-20T19:03:42.104Z,97471.97
2023-10-20T19:06:44.569Z,97471.94
2023-10-20T19:09:47.015Z,97474.56
2023-10-20T19:12:49.246Z,97470.16
2023-10-20T19:15:51.521Z,97466.31
2023-10-20T19:19:43.573Z,97471.16
2023-10-20T19:22:46.631Z,97477.38
2023-10-20T19:26:01.613Z,97471.34
2023-10-20T19:29:05.661Z,97475.78
2023-10-20T19:32:08.999Z,97478.59
2023-10-20T19:35:11.119Z,97477.41
2023-10-20T19:38:13.560Z,97469.16
2023-10-20T19:41:15.595Z,97475.38
2023-10-20T19:44:17.489Z,97477.19
2023-10-20T19:47:19.410Z,97473.59
2023-10-20T19:50:21.343Z,97493.91
2023-10-20T19:53:24.124Z,97490.28
2023-10-20T19:56:26.130Z,97487.47
2023-10-20T19:59:27.979Z,97483.84
2023-10-20T20:02:29.985Z,97492.50
2023-10-20T20:05:32.093Z,97505.97
2023-10-20T20:08:34.131Z,97494.50
2023-10-20T20:11:36.158Z,97499.97
2023-10-20T20:14:38.121Z,97504.75
2023-10-20T20:17:40.217Z,97501.94
2023-10-20T20:20:42.200Z,97510.41
2023-10-20T20:23:55.068Z,97511.41
2023-10-20T20:26:57.052Z,97519.84
2023-10-20T20:29:59.014Z,97515.56
2023-10-20T20:33:01.001Z,97517.78
2023-10-20T20:36:05.635Z,97505.28
2023-10-20T20:39:07.638Z,97508.31
2023-10-20T20:42:10.055Z,97519.78
2023-10-20T20:45:12.171Z,97526.44
2023-10-20T20:48:14.259Z,97533.81
2023-10-20T20:51:16.317Z,97536.41
2023-10-20T20:54:18.463Z,97536.94
2023-10-20T20:57:20.306Z,97535.66
2023-10-20T21:00:22.171Z,97549.75
2023-10-20T21:03:24.137Z,97547.34
2023-10-20T21:06:26.171Z,97552.94
2023-10-20T21:09:28.849Z,97559.44
2023-10-20T21:12:30.965Z,97559.63
2023-10-20T21:15:36.977Z,97575.09
2023-10-20T21:18:39.465Z,97577.91
2023-10-20T21:21:41.432Z,97565.88
2023-10-20T21:24:43.651Z,97573.50
2023-10-20T21:27:45.657Z,97566.41
2023-10-20T21:30:47.783Z,97560.56
2023-10-20T21:33:49.761Z,97560.88
2023-10-20T21:36:51.679Z,97570.59
2023-10-20T21:39:53.660Z,97568.19
2023-10-20T21:42:55.522Z,97565.34
2023-10-20T21:45:58.721Z,97568.28
2023-10-20T21:49:00.764Z,97569.50
2023-10-20T21:52:02.667Z,97566.16
2023-10-20T21:55:05.142Z,97569.38
2023-10-20T21:58:07.277Z,97574.41
2023-10-20T22:01:10.316Z,97581.66
2023-10-20T22:04:12.604Z,97575.66
2023-10-20T22:07:14.775Z,97579.84
2023-10-20T22:10:16.668Z,97591.53
2023-10-20T22:13:18.974Z,97595.56
2023-10-20T22:16:20.838Z,97601.81
2023-10-20T22:19:22.773Z,97602.59
2023-10-20T22:22:24.666Z,97606.00
2023-10-20T22:25:26.578Z,97606.16
2023-10-20T22:28:31.234Z,97603.53
2023-10-20T22:31:35.939Z,97610.13
2023-10-20T22:34:37.832Z,97594.03
2023-10-20T22:37:39.650Z,97588.38
2023-10-20T22:40:41.505Z,97588.16
2023-10-20T22:43:43.350Z,97600.38
2023-10-20T22:46:45.243Z,97602.38
2023-10-20T22:49:47.198Z,97602.56
2023-10-20T22:52:49.157Z,97600.69
2023-10-20T22:55:51.035Z,97606.78
2023-10-20T22:58:52.913Z,97599.25
2023-10-20T23:01:55.004Z,97606.97
2023-10-20T23:04:57.074Z,97606.63
2023-10-20T23:08:00.158Z,97607.13
2023-10-20T23:11:02.023Z,97602.13
2023-10-20T23:14:04.349Z,97605.28
2023-10-20T23:17:06.337Z,97614.78
2023-10-20T23:20:08.800Z,97620.19
2023-10-20T23:23:10.999Z,97628.41
2023-10-20T23:26:12.850Z,97633.59
2023-10-20T23:29:14.725Z,97636.56
2023-10-20T23:32:16.605Z,97645.16
2023-10-20T23:35:19.999Z,97659.00
2023-10-20T23:38:21.933Z,97651.38
2023-10-20T23:41:23.963Z,97654.91
2023-10-20T23:44:25.929Z,97658.75
2023-10-20T23:47:27.928Z,97658.88
2023-10-20T23:50:29.820Z,97674.25
2023-10-20T23:53:31.736Z,97674.28
2023-10-20T23:56:33.862Z,97686.53
2023-10-20T23:59:35.975Z,97670.59
